sensor_id;sensor_type;location;lat;lon;timestamp;P1;durP1;ratioP1;P2;durP2;ratioP2
35506;SDS011;36461;52.018;21.036;2023-03-17T00:02:03;101.60;;;49.10;;
35506;SDS011;36461;52.018;21.036;2023-03-17T00:04:31;85.30;;;47.10;;
35506;SDS011;36461;52.018;21.036;2023-03-17T00:06:59;90.40;;;49.20;;
35506;SDS011;36461;52.018;21.036;2023-03-17T00:09:27;84.50;;;45.00;;
35506;SDS011;36461;52.018;21.036;2023-03-17T00:11:55;86.10;;;45.50;;
35506;SDS011;36461;52.018;21.036;2023-03-17T00:14:23;83.90;;;45.90;;
35506;SDS011;36461;52.018;21.036;2023-03-17T00:16:51;76.70;;;43.20;;
35506;SDS011;36461;52.018;21.036;2023-03-17T00:19:25;73.00;;;40.30;;
35506;SDS011;36461;52.018;21.036;2023-03-17T00:21:59;69.90;;;38.10;;
35506;SDS011;36461;52.018;21.036;2023-03-17T00:24:28;64.90;;;36.30;;
35506;SDS011;36461;52.018;21.036;2023-03-17T00:26:57;62.30;;;34.00;;
35506;SDS011;36461;52.018;21.036;2023-03-17T00:29:26;58.90;;;33.30;;
35506;SDS011;36461;52.018;21.036;2023-03-17T00:31:55;58.00;;;32.40;;
35506;SDS011;36461;52.018;21.036;2023-03-17T00:34:24;66.20;;;37.00;;
35506;SDS011;36461;52.018;21.036;2023-03-17T00:36:52;67.10;;;37.30;;
35506;SDS011;36461;52.018;21.036;2023-03-17T00:39:22;68.50;;;37.00;;
35506;SDS011;36461;52.018;21.036;2023-03-17T00:41:54;62.20;;;36.10;;
35506;SDS011;36461;52.018;21.036;2023-03-17T00:44:22;71.00;;;37.40;;
35506;SDS011;36461;52.018;21.036;2023-03-17T00:46:51;68.40;;;37.70;;
35506;SDS011;36461;52.018;21.036;2023-03-17T00:49:21;69.70;;;38.10;;
35506;SDS011;36461;52.018;21.036;2023-03-17T00:51:51;67.00;;;37.00;;
35506;SDS011;36461;52.018;21.036;2023-03-17T00:54:21;65.30;;;36.20;;
35506;SDS011;36461;52.018;21.036;2023-03-17T00:56:50;64.30;;;36.10;;
35506;SDS011;36461;52.018;21.036;2023-03-17T00:59:26;65.00;;;36.80;;
35506;SDS011;36461;52.018;21.036;2023-03-17T01:01:56;60.00;;;35.10;;
35506;SDS011;36461;52.018;21.036;2023-03-17T01:04:24;57.90;;;35.00;;
35506;SDS011;36461;52.018;21.036;2023-03-17T01:06:52;59.00;;;33.80;;
35506;SDS011;36461;52.018;21.036;2023-03-17T01:09:22;62.70;;;35.30;;
35506;SDS011;36461;52.018;21.036;2023-03-17T01:11:53;57.90;;;35.00;;
35506;SDS011;36461;52.018;21.036;2023-03-17T01:14:22;56.00;;;33.30;;
35506;SDS011;36461;52.018;21.036;2023-03-17T01:16:51;55.70;;;33.60;;
35506;SDS011;36461;52.018;21.036;2023-03-17T01:19:19;60.80;;;35.20;;
35506;SDS011;36461;52.018;21.036;2023-03-17T01:21:48;59.30;;;33.90;;
35506;SDS011;36461;52.018;21.036;2023-03-17T01:24:17;51.80;;;32.80;;
35506;SDS011;36461;52.018;21.036;2023-03-17T01:26:45;59.40;;;34.00;;
35506;SDS011;36461;52.018;21.036;2023-03-17T01:29:14;60.50;;;34.50;;
35506;SDS011;36461;52.018;21.036;2023-03-17T01:31:43;59.10;;;33.50;;
35506;SDS011;36461;52.018;21.036;2023-03-17T01:34:12;53.00;;;32.70;;
35506;SDS011;36461;52.018;21.036;2023-03-17T01:36:42;60.20;;;33.90;;
35506;SDS011;36461;52.018;21.036;2023-03-17T01:39:10;58.10;;;33.90;;
35506;SDS011;36461;52.018;21.036;2023-03-17T01:41:39;60.70;;;35.90;;
35506;SDS011;36461;52.018;21.036;2023-03-17T01:44:14;62.60;;;37.30;;
35506;SDS011;36461;52.018;21.036;2023-03-17T01:46:44;63.40;;;36.30;;
35506;SDS011;36461;52.018;21.036;2023-03-17T01:49:16;64.70;;;35.20;;
35506;SDS011;36461;52.018;21.036;2023-03-17T01:54:43;70.00;;;36.20;;
35506;SDS011;36461;52.018;21.036;2023-03-17T01:59:49;64.90;;;36.10;;
35506;SDS011;36461;52.018;21.036;2023-03-17T02:02:21;70.40;;;39.00;;
35506;SDS011;36461;52.018;21.036;2023-03-17T02:04:52;73.60;;;38.30;;
35506;SDS011;36461;52.018;21.036;2023-03-17T02:07:20;70.40;;;38.60;;
35506;SDS011;36461;52.018;21.036;2023-03-17T02:09:51;65.60;;;37.70;;
35506;SDS011;36461;52.018;21.036;2023-03-17T02:12:20;57.60;;;35.20;;
35506;SDS011;36461;52.018;21.036;2023-03-17T02:14:50;58.90;;;34.60;;
35506;SDS011;36461;52.018;21.036;2023-03-17T02:17:19;65.00;;;36.90;;
35506;SDS011;36461;52.018;21.036;2023-03-17T02:19:49;61.40;;;35.60;;
35506;SDS011;36461;52.018;21.036;2023-03-17T02:22:18;65.70;;;37.90;;
35506;SDS011;36461;52.018;21.036;2023-03-17T02:24:48;66.40;;;38.10;;
35506;SDS011;36461;52.018;21.036;2023-03-17T02:27:23;61.40;;;35.60;;
35506;SDS011;36461;52.018;21.036;2023-03-17T02:29:57;56.00;;;34.10;;
35506;SDS011;36461;52.018;21.036;2023-03-17T02:32:26;59.20;;;35.90;;
35506;SDS011;36461;52.018;21.036;2023-03-17T02:34:55;61.20;;;34.80;;
35506;SDS011;36461;52.018;21.036;2023-03-17T02:37:23;55.80;;;34.30;;
35506;SDS011;36461;52.018;21.036;2023-03-17T02:39:51;53.30;;;32.50;;
35506;SDS011;36461;52.018;21.036;2023-03-17T02:42:20;62.90;;;34.90;;
35506;SDS011;36461;52.018;21.036;2023-03-17T02:44:48;57.00;;;33.40;;
35506;SDS011;36461;52.018;21.036;2023-03-17T02:47:18;52.00;;;31.50;;
35506;SDS011;36461;52.018;21.036;2023-03-17T02:49:48;54.50;;;33.00;;
35506;SDS011;36461;52.018;21.036;2023-03-17T02:52:16;59.10;;;34.50;;
35506;SDS011;36461;52.018;21.036;2023-03-17T02:54:44;61.70;;;35.10;;
35506;SDS011;36461;52.018;21.036;2023-03-17T02:57:12;64.10;;;36.30;;
35506;SDS011;36461;52.018;21.036;2023-03-17T02:59:40;65.10;;;36.10;;
35506;SDS011;36461;52.018;21.036;2023-03-17T03:02:08;67.70;;;36.10;;
35506;SDS011;36461;52.018;21.036;2023-03-17T03:04:36;65.10;;;36.70;;
35506;SDS011;36461;52.018;21.036;2023-03-17T03:07:04;60.30;;;34.30;;
35506;SDS011;36461;52.018;21.036;2023-03-17T03:09:32;63.00;;;34.40;;
35506;SDS011;36461;52.018;21.036;2023-03-17T03:12:01;60.60;;;34.00;;
35506;SDS011;36461;52.018;21.036;2023-03-17T03:14:29;58.40;;;31.10;;
35506;SDS011;36461;52.018;21.036;2023-03-17T03:16:59;58.70;;;31.50;;
35506;SDS011;36461;52.018;21.036;2023-03-17T03:19:26;51.90;;;31.70;;
35506;SDS011;36461;52.018;21.036;2023-03-17T03:21:54;54.80;;;32.30;;
35506;SDS011;36461;52.018;21.036;2023-03-17T03:24:23;49.80;;;29.50;;
35506;SDS011;36461;52.018;21.036;2023-03-17T03:26:51;42.20;;;27.50;;
35506;SDS011;36461;52.018;21.036;2023-03-17T03:29:19;47.60;;;28.70;;
35506;SDS011;36461;52.018;21.036;2023-03-17T03:31:47;47.60;;;28.00;;
35506;SDS011;36461;52.018;21.036;2023-03-17T03:34:15;47.00;;;27.60;;
35506;SDS011;36461;52.018;21.036;2023-03-17T03:36:43;46.70;;;28.60;;
35506;SDS011;36461;52.018;21.036;2023-03-17T03:39:11;45.00;;;27.40;;
35506;SDS011;36461;52.018;21.036;2023-03-17T03:41:41;47.90;;;27.90;;
35506;SDS011;36461;52.018;21.036;2023-03-17T03:44:08;49.90;;;29.50;;
35506;SDS011;36461;52.018;21.036;2023-03-17T03:46:37;46.30;;;29.00;;
35506;SDS011;36461;52.018;21.036;2023-03-17T03:49:05;52.70;;;30.90;;
35506;SDS011;36461;52.018;21.036;2023-03-17T03:51:32;48.90;;;29.80;;
35506;SDS011;36461;52.018;21.036;2023-03-17T03:54:00;45.00;;;29.30;;
35506;SDS011;36461;52.018;21.036;2023-03-17T03:56:28;57.60;;;34.60;;
35506;SDS011;36461;52.018;21.036;2023-03-17T03:58:56;56.20;;;32.60;;
35506;SDS011;36461;52.018;21.036;2023-03-17T04:01:24;52.00;;;31.80;;
35506;SDS011;36461;52.018;21.036;2023-03-17T04:03:52;57.60;;;32.20;;
35506;SDS011;36461;52.018;21.036;2023-03-17T04:06:20;58.40;;;31.60;;
35506;SDS011;36461;52.018;21.036;2023-03-17T04:08:48;53.10;;;31.00;;
35506;SDS011;36461;52.018;21.036;2023-03-17T04:11:16;49.90;;;30.70;;
35506;SDS011;36461;52.018;21.036;2023-03-17T04:13:44;48.80;;;28.80;;
35506;SDS011;36461;52.018;21.036;2023-03-17T04:16:12;55.60;;;29.70;;
35506;SDS011;36461;52.018;21.036;2023-03-17T04:18:40;47.30;;;28.70;;
35506;SDS011;36461;52.018;21.036;2023-03-17T04:21:08;43.80;;;27.70;;
35506;SDS011;36461;52.018;21.036;2023-03-17T04:23:36;44.60;;;27.60;;
35506;SDS011;36461;52.018;21.036;2023-03-17T04:26:04;43.00;;;25.30;;
35506;SDS011;36461;52.018;21.036;2023-03-17T04:28:32;41.40;;;25.10;;
35506;SDS011;36461;52.018;21.036;2023-03-17T04:31:00;41.80;;;25.50;;
35506;SDS011;36461;52.018;21.036;2023-03-17T04:33:28;44.00;;;26.40;;
35506;SDS011;36461;52.018;21.036;2023-03-17T04:35:56;39.70;;;24.80;;
35506;SDS011;36461;52.018;21.036;2023-03-17T04:38:25;42.90;;;24.60;;
35506;SDS011;36461;52.018;21.036;2023-03-17T04:40:53;46.70;;;26.60;;
35506;SDS011;36461;52.018;21.036;2023-03-17T04:43:21;44.30;;;25.90;;
35506;SDS011;36461;52.018;21.036;2023-03-17T04:45:49;42.10;;;24.70;;
35506;SDS011;36461;52.018;21.036;2023-03-17T04:48:17;45.70;;;26.10;;
35506;SDS011;36461;52.018;21.036;2023-03-17T04:50:45;41.70;;;25.70;;
35506;SDS011;36461;52.018;21.036;2023-03-17T04:53:14;40.50;;;25.00;;
35506;SDS011;36461;52.018;21.036;2023-03-17T04:55:42;44.40;;;26.20;;
35506;SDS011;36461;52.018;21.036;2023-03-17T04:58:10;42.40;;;25.50;;
35506;SDS011;36461;52.018;21.036;2023-03-17T05:00:54;45.00;;;25.50;;
35506;SDS011;36461;52.018;21.036;2023-03-17T05:03:22;41.20;;;26.00;;
35506;SDS011;36461;52.018;21.036;2023-03-17T05:05:57;43.00;;;26.20;;
35506;SDS011;36461;52.018;21.036;2023-03-17T05:08:26;44.10;;;25.90;;
35506;SDS011;36461;52.018;21.036;2023-03-17T05:10:55;42.40;;;26.60;;
35506;SDS011;36461;52.018;21.036;2023-03-17T05:13:24;42.90;;;24.70;;
35506;SDS011;36461;52.018;21.036;2023-03-17T05:15:54;56.40;;;29.30;;
35506;SDS011;36461;52.018;21.036;2023-03-17T05:18:23;47.80;;;28.60;;
35506;SDS011;36461;52.018;21.036;2023-03-17T05:20:52;47.00;;;28.60;;
35506;SDS011;36461;52.018;21.036;2023-03-17T05:23:20;54.50;;;30.00;;
35506;SDS011;36461;52.018;21.036;2023-03-17T05:25:49;52.90;;;29.20;;
35506;SDS011;36461;52.018;21.036;2023-03-17T05:28:20;52.90;;;31.30;;
35506;SDS011;36461;52.018;21.036;2023-03-17T05:30:49;52.20;;;31.60;;
35506;SDS011;36461;52.018;21.036;2023-03-17T05:33:17;51.80;;;32.10;;
35506;SDS011;36461;52.018;21.036;2023-03-17T05:35:45;49.20;;;30.20;;
35506;SDS011;36461;52.018;21.036;2023-03-17T05:38:14;50.10;;;30.70;;
35506;SDS011;36461;52.018;21.036;2023-03-17T05:40:42;47.30;;;30.60;;
35506;SDS011;36461;52.018;21.036;2023-03-17T05:43:11;45.60;;;31.00;;
35506;SDS011;36461;52.018;21.036;2023-03-17T05:45:40;54.80;;;31.70;;
35506;SDS011;36461;52.018;21.036;2023-03-17T05:48:09;52.00;;;31.30;;
35506;SDS011;36461;52.018;21.036;2023-03-17T05:50:39;45.40;;;30.20;;
35506;SDS011;36461;52.018;21.036;2023-03-17T05:53:08;52.70;;;30.20;;
35506;SDS011;36461;52.018;21.036;2023-03-17T05:55:37;47.70;;;29.10;;
35506;SDS011;36461;52.018;21.036;2023-03-17T05:58:05;51.30;;;30.30;;
35506;SDS011;36461;52.018;21.036;2023-03-17T06:00:34;49.90;;;29.40;;
35506;SDS011;36461;52.018;21.036;2023-03-17T06:03:04;50.10;;;28.60;;
35506;SDS011;36461;52.018;21.036;2023-03-17T06:05:33;42.80;;;28.10;;
35506;SDS011;36461;52.018;21.036;2023-03-17T06:08:02;45.20;;;28.40;;
35506;SDS011;36461;52.018;21.036;2023-03-17T06:10:32;51.10;;;29.20;;
35506;SDS011;36461;52.018;21.036;2023-03-17T06:13:00;48.30;;;28.90;;
35506;SDS011;36461;52.018;21.036;2023-03-17T06:15:30;53.60;;;28.40;;
35506;SDS011;36461;52.018;21.036;2023-03-17T06:18:01;48.90;;;28.30;;
35506;SDS011;36461;52.018;21.036;2023-03-17T06:20:32;49.80;;;30.00;;
35506;SDS011;36461;52.018;21.036;2023-03-17T06:23:00;50.40;;;29.00;;
35506;SDS011;36461;52.018;21.036;2023-03-17T06:25:33;50.20;;;28.70;;
35506;SDS011;36461;52.018;21.036;2023-03-17T06:28:02;47.20;;;29.00;;
35506;SDS011;36461;52.018;21.036;2023-03-17T06:30:33;48.20;;;28.90;;
35506;SDS011;36461;52.018;21.036;2023-03-17T06:33:06;50.60;;;28.80;;
35506;SDS011;36461;52.018;21.036;2023-03-17T06:35:35;50.50;;;28.20;;
35506;SDS011;36461;52.018;21.036;2023-03-17T06:38:04;45.00;;;27.70;;
35506;SDS011;36461;52.018;21.036;2023-03-17T06:40:31;46.50;;;29.30;;
35506;SDS011;36461;52.018;21.036;2023-03-17T06:43:00;49.30;;;28.90;;
35506;SDS011;36461;52.018;21.036;2023-03-17T06:45:29;49.70;;;28.90;;
35506;SDS011;36461;52.018;21.036;2023-03-17T06:47:59;48.90;;;28.40;;
35506;SDS011;36461;52.018;21.036;2023-03-17T06:50:29;42.80;;;26.30;;
35506;SDS011;36461;52.018;21.036;2023-03-17T06:52:56;44.30;;;24.20;;
35506;SDS011;36461;52.018;21.036;2023-03-17T06:55:24;40.90;;;24.20;;
35506;SDS011;36461;52.018;21.036;2023-03-17T06:57:54;46.20;;;27.00;;
35506;SDS011;36461;52.018;21.036;2023-03-17T07:00:22;47.90;;;26.30;;
35506;SDS011;36461;52.018;21.036;2023-03-17T07:02:50;41.30;;;25.00;;
35506;SDS011;36461;52.018;21.036;2023-03-17T07:05:19;34.60;;;21.30;;
35506;SDS011;36461;52.018;21.036;2023-03-17T07:07:47;39.50;;;24.70;;
35506;SDS011;36461;52.018;21.036;2023-03-17T07:10:16;46.00;;;25.20;;
35506;SDS011;36461;52.018;21.036;2023-03-17T07:12:44;40.00;;;23.40;;
35506;SDS011;36461;52.018;21.036;2023-03-17T07:15:12;40.40;;;23.50;;
35506;SDS011;36461;52.018;21.036;2023-03-17T07:17:40;42.00;;;23.10;;
35506;SDS011;36461;52.018;21.036;2023-03-17T07:20:09;37.00;;;20.80;;
35506;SDS011;36461;52.018;21.036;2023-03-17T07:22:39;39.00;;;21.60;;
35506;SDS011;36461;52.018;21.036;2023-03-17T07:25:08;33.40;;;18.30;;
35506;SDS011;36461;52.018;21.036;2023-03-17T07:27:37;29.00;;;16.00;;
35506;SDS011;36461;52.018;21.036;2023-03-17T07:30:05;28.00;;;16.40;;
35506;SDS011;36461;52.018;21.036;2023-03-17T07:32:34;24.00;;;15.40;;
35506;SDS011;36461;52.018;21.036;2023-03-17T07:35:03;23.80;;;14.40;;
35506;SDS011;36461;52.018;21.036;2023-03-17T07:37:32;22.90;;;15.30;;
35506;SDS011;36461;52.018;21.036;2023-03-17T07:40:00;25.20;;;14.70;;
35506;SDS011;36461;52.018;21.036;2023-03-17T07:42:28;23.70;;;13.20;;
35506;SDS011;36461;52.018;21.036;2023-03-17T07:44:56;19.20;;;11.90;;
35506;SDS011;36461;52.018;21.036;2023-03-17T07:47:24;19.20;;;11.10;;
35506;SDS011;36461;52.018;21.036;2023-03-17T07:49:52;18.30;;;10.60;;
35506;SDS011;36461;52.018;21.036;2023-03-17T07:52:21;19.30;;;11.10;;
35506;SDS011;36461;52.018;21.036;2023-03-17T07:54:49;17.30;;;9.90;;
35506;SDS011;36461;52.018;21.036;2023-03-17T07:57:18;16.00;;;10.50;;
35506;SDS011;36461;52.018;21.036;2023-03-17T07:59:46;18.30;;;9.70;;
35506;SDS011;36461;52.018;21.036;2023-03-17T08:02:14;17.30;;;9.30;;
35506;SDS011;36461;52.018;21.036;2023-03-17T08:04:44;16.70;;;9.70;;
35506;SDS011;36461;52.018;21.036;2023-03-17T08:07:12;16.40;;;9.90;;
35506;SDS011;36461;52.018;21.036;2023-03-17T08:09:42;15.80;;;9.20;;
35506;SDS011;36461;52.018;21.036;2023-03-17T08:12:10;13.40;;;8.70;;
35506;SDS011;36461;52.018;21.036;2023-03-17T08:14:38;16.40;;;8.90;;
35506;SDS011;36461;52.018;21.036;2023-03-17T08:17:08;10.70;;;6.70;;
35506;SDS011;36461;52.018;21.036;2023-03-17T08:19:37;10.60;;;6.00;;
35506;SDS011;36461;52.018;21.036;2023-03-17T08:22:05;7.90;;;4.80;;
35506;SDS011;36461;52.018;21.036;2023-03-17T08:24:33;9.90;;;4.90;;
35506;SDS011;36461;52.018;21.036;2023-03-17T08:27:02;9.60;;;4.90;;
35506;SDS011;36461;52.018;21.036;2023-03-17T08:29:30;6.90;;;4.40;;
35506;SDS011;36461;52.018;21.036;2023-03-17T08:31:58;8.20;;;4.50;;
35506;SDS011;36461;52.018;21.036;2023-03-17T08:34:26;13.20;;;5.30;;
35506;SDS011;36461;52.018;21.036;2023-03-17T08:36:55;6.80;;;4.10;;
35506;SDS011;36461;52.018;21.036;2023-03-17T08:39:23;7.00;;;4.20;;
35506;SDS011;36461;52.018;21.036;2023-03-17T08:41:51;6.60;;;3.90;;
35506;SDS011;36461;52.018;21.036;2023-03-17T08:44:19;9.90;;;4.40;;
35506;SDS011;36461;52.018;21.036;2023-03-17T08:46:48;11.50;;;4.30;;
35506;SDS011;36461;52.018;21.036;2023-03-17T08:49:17;8.40;;;4.30;;
35506;SDS011;36461;52.018;21.036;2023-03-17T08:51:45;6.90;;;4.10;;
35506;SDS011;36461;52.018;21.036;2023-03-17T08:54:14;7.10;;;3.90;;
35506;SDS011;36461;52.018;21.036;2023-03-17T08:56:42;8.00;;;4.50;;
35506;SDS011;36461;52.018;21.036;2023-03-17T08:59:10;7.50;;;4.60;;
35506;SDS011;36461;52.018;21.036;2023-03-17T09:01:39;9.70;;;4.90;;
35506;SDS011;36461;52.018;21.036;2023-03-17T09:04:07;7.90;;;4.90;;
35506;SDS011;36461;52.018;21.036;2023-03-17T09:06:35;9.10;;;4.60;;
35506;SDS011;36461;52.018;21.036;2023-03-17T09:09:06;9.50;;;4.80;;
35506;SDS011;36461;52.018;21.036;2023-03-17T09:11:34;8.70;;;5.60;;
35506;SDS011;36461;52.018;21.036;2023-03-17T09:14:02;9.90;;;5.00;;
35506;SDS011;36461;52.018;21.036;2023-03-17T09:16:30;8.70;;;5.30;;
35506;SDS011;36461;52.018;21.036;2023-03-17T09:19:01;7.30;;;4.80;;
35506;SDS011;36461;52.018;21.036;2023-03-17T09:21:30;9.50;;;5.20;;
35506;SDS011;36461;52.018;21.036;2023-03-17T09:23:58;8.80;;;4.90;;
35506;SDS011;36461;52.018;21.036;2023-03-17T09:26:29;8.50;;;5.40;;
35506;SDS011;36461;52.018;21.036;2023-03-17T09:28:57;10.40;;;5.50;;
35506;SDS011;36461;52.018;21.036;2023-03-17T09:31:25;7.80;;;5.10;;
35506;SDS011;36461;52.018;21.036;2023-03-17T09:33:53;12.80;;;7.90;;
35506;SDS011;36461;52.018;21.036;2023-03-17T09:36:21;8.90;;;5.50;;
35506;SDS011;36461;52.018;21.036;2023-03-17T09:38:50;9.40;;;5.30;;
35506;SDS011;36461;52.018;21.036;2023-03-17T09:46:56;6.80;;;4.80;;
35506;SDS011;36461;52.018;21.036;2023-03-17T09:49:36;9.10;;;5.30;;
35506;SDS011;36461;52.018;21.036;2023-03-17T09:52:08;8.70;;;4.50;;
35506;SDS011;36461;52.018;21.036;2023-03-17T09:54:39;12.10;;;4.70;;
35506;SDS011;36461;52.018;21.036;2023-03-17T09:59:47;7.80;;;4.20;;
35506;SDS011;36461;52.018;21.036;2023-03-17T10:04:50;7.30;;;4.40;;
35506;SDS011;36461;52.018;21.036;2023-03-17T10:13:01;6.20;;;4.10;;
35506;SDS011;36461;52.018;21.036;2023-03-17T10:15:34;8.30;;;4.40;;
35506;SDS011;36461;52.018;21.036;2023-03-17T10:18:12;9.90;;;5.10;;
35506;SDS011;36461;52.018;21.036;2023-03-17T10:20:45;9.80;;;4.30;;
35506;SDS011;36461;52.018;21.036;2023-03-17T10:23:23;7.00;;;4.60;;
35506;SDS011;36461;52.018;21.036;2023-03-17T10:26:06;10.30;;;4.80;;
35506;SDS011;36461;52.018;21.036;2023-03-17T10:29:00;10.10;;;4.70;;
35506;SDS011;36461;52.018;21.036;2023-03-17T10:31:31;6.60;;;4.40;;
35506;SDS011;36461;52.018;21.036;2023-03-17T10:36:49;6.30;;;4.00;;
35506;SDS011;36461;52.018;21.036;2023-03-17T10:39:21;8.90;;;4.80;;
35506;SDS011;36461;52.018;21.036;2023-03-17T10:41:53;8.60;;;4.80;;
35506;SDS011;36461;52.018;21.036;2023-03-17T10:44:49;9.20;;;4.60;;
35506;SDS011;36461;52.018;21.036;2023-03-17T10:47:29;10.20;;;4.50;;
35506;SDS011;36461;52.018;21.036;2023-03-17T10:50:12;10.70;;;4.70;;
35506;SDS011;36461;52.018;21.036;2023-03-17T10:52:51;8.20;;;4.40;;
35506;SDS011;36461;52.018;21.036;2023-03-17T10:58:00;8.60;;;4.90;;
35506;SDS011;36461;52.018;21.036;2023-03-17T11:03:25;8.50;;;5.10;;
35506;SDS011;36461;52.018;21.036;2023-03-17T11:06:06;11.80;;;5.40;;
35506;SDS011;36461;52.018;21.036;2023-03-17T11:08:47;9.80;;;5.00;;
35506;SDS011;36461;52.018;21.036;2023-03-17T11:11:31;8.90;;;5.00;;
35506;SDS011;36461;52.018;21.036;2023-03-17T11:14:05;9.20;;;4.80;;
35506;SDS011;36461;52.018;21.036;2023-03-17T11:17:29;9.80;;;4.80;;
35506;SDS011;36461;52.018;21.036;2023-03-17T11:20:08;9.20;;;4.80;;
35506;SDS011;36461;52.018;21.036;2023-03-17T11:22:39;9.20;;;4.90;;
35506;SDS011;36461;52.018;21.036;2023-03-17T11:25:11;9.60;;;4.50;;
35506;SDS011;36461;52.018;21.036;2023-03-17T11:30:55;7.50;;;4.40;;
35506;SDS011;36461;52.018;21.036;2023-03-17T11:33:41;7.70;;;4.30;;
35506;SDS011;36461;52.018;21.036;2023-03-17T11:36:29;9.00;;;4.90;;
35506;SDS011;36461;52.018;21.036;2023-03-17T11:39:15;9.60;;;4.90;;
35506;SDS011;36461;52.018;21.036;2023-03-17T11:50:00;8.80;;;4.60;;
35506;SDS011;36461;52.018;21.036;2023-03-17T11:52:44;8.90;;;4.70;;
35506;SDS011;36461;52.018;21.036;2023-03-17T11:57:55;8.60;;;4.70;;
35506;SDS011;36461;52.018;21.036;2023-03-17T12:05:49;8.20;;;4.30;;
35506;SDS011;36461;52.018;21.036;2023-03-17T12:08:23;7.10;;;4.80;;
35506;SDS011;36461;52.018;21.036;2023-03-17T12:11:05;10.20;;;4.70;;
35506;SDS011;36461;52.018;21.036;2023-03-17T12:13:38;8.70;;;4.50;;
35506;SDS011;36461;52.018;21.036;2023-03-17T12:16:14;9.50;;;4.30;;
35506;SDS011;36461;52.018;21.036;2023-03-17T12:19:02;8.00;;;3.80;;
35506;SDS011;36461;52.018;21.036;2023-03-17T12:27:45;7.70;;;4.00;;
35506;SDS011;36461;52.018;21.036;2023-03-17T12:30:26;9.40;;;3.90;;
35506;SDS011;36461;52.018;21.036;2023-03-17T12:35:57;7.00;;;4.30;;
35506;SDS011;36461;52.018;21.036;2023-03-17T12:46:42;7.70;;;4.00;;
35506;SDS011;36461;52.018;21.036;2023-03-17T12:50:17;8.80;;;5.10;;
35506;SDS011;36461;52.018;21.036;2023-03-17T12:52:59;11.80;;;4.80;;
35506;SDS011;36461;52.018;21.036;2023-03-17T12:55:36;10.00;;;5.40;;
35506;SDS011;36461;52.018;21.036;2023-03-17T12:58:18;11.10;;;4.90;;
35506;SDS011;36461;52.018;21.036;2023-03-17T13:04:00;12.80;;;6.20;;
35506;SDS011;36461;52.018;21.036;2023-03-17T13:06:35;8.40;;;5.20;;
35506;SDS011;36461;52.018;21.036;2023-03-17T13:11:59;7.00;;;4.30;;
35506;SDS011;36461;52.018;21.036;2023-03-17T13:14:42;8.60;;;4.40;;
35506;SDS011;36461;52.018;21.036;2023-03-17T13:19:54;7.80;;;4.40;;
35506;SDS011;36461;52.018;21.036;2023-03-17T13:22:33;10.10;;;5.00;;
35506;SDS011;36461;52.018;21.036;2023-03-17T13:25:12;9.50;;;4.70;;
35506;SDS011;36461;52.018;21.036;2023-03-17T13:41:55;10.90;;;5.60;;
35506;SDS011;36461;52.018;21.036;2023-03-17T13:44:49;9.10;;;4.70;;
35506;SDS011;36461;52.018;21.036;2023-03-17T13:47:35;10.30;;;4.80;;
35506;SDS011;36461;52.018;21.036;2023-03-17T13:52:55;10.20;;;5.50;;
35506;SDS011;36461;52.018;21.036;2023-03-17T13:55:31;10.00;;;6.00;;
35506;SDS011;36461;52.018;21.036;2023-03-17T14:00:39;13.20;;;5.90;;
35506;SDS011;36461;52.018;21.036;2023-03-17T14:03:12;15.50;;;7.00;;
35506;SDS011;36461;52.018;21.036;2023-03-17T14:05:50;11.50;;;6.40;;
35506;SDS011;36461;52.018;21.036;2023-03-17T14:08:29;10.50;;;5.80;;
35506;SDS011;36461;52.018;21.036;2023-03-17T14:11:01;10.00;;;6.60;;
35506;SDS011;36461;52.018;21.036;2023-03-17T14:16:14;11.10;;;6.60;;
35506;SDS011;36461;52.018;21.036;2023-03-17T14:18:49;13.10;;;7.90;;
35506;SDS011;36461;52.018;21.036;2023-03-17T14:21:21;13.00;;;8.30;;
35506;SDS011;36461;52.018;21.036;2023-03-17T14:23:58;13.70;;;8.80;;
35506;SDS011;36461;52.018;21.036;2023-03-17T14:26:28;14.60;;;8.90;;
35506;SDS011;36461;52.018;21.036;2023-03-17T14:28:59;15.20;;;8.60;;
35506;SDS011;36461;52.018;21.036;2023-03-17T14:31:31;13.70;;;8.70;;
35506;SDS011;36461;52.018;21.036;2023-03-17T14:33:59;13.30;;;8.70;;
35506;SDS011;36461;52.018;21.036;2023-03-17T14:36:32;15.10;;;9.40;;
35506;SDS011;36461;52.018;21.036;2023-03-17T14:39:01;13.80;;;8.80;;
35506;SDS011;36461;52.018;21.036;2023-03-17T14:41:29;15.10;;;9.10;;
35506;SDS011;36461;52.018;21.036;2023-03-17T14:43:59;14.60;;;8.50;;
35506;SDS011;36461;52.018;21.036;2023-03-17T14:46:37;15.10;;;8.90;;
35506;SDS011;36461;52.018;21.036;2023-03-17T14:49:18;13.40;;;7.20;;
35506;SDS011;36461;52.018;21.036;2023-03-17T14:51:48;10.90;;;7.20;;
35506;SDS011;36461;52.018;21.036;2023-03-17T14:54:19;14.80;;;6.80;;
35506;SDS011;36461;52.018;21.036;2023-03-17T14:56:54;10.60;;;6.90;;
35506;SDS011;36461;52.018;21.036;2023-03-17T15:02:21;12.50;;;7.30;;
35506;SDS011;36461;52.018;21.036;2023-03-17T15:04:56;11.60;;;7.10;;
35506;SDS011;36461;52.018;21.036;2023-03-17T15:10:05;13.20;;;7.20;;
35506;SDS011;36461;52.018;21.036;2023-03-17T15:12:43;12.10;;;7.00;;
35506;SDS011;36461;52.018;21.036;2023-03-17T15:15:23;11.40;;;6.10;;
35506;SDS011;36461;52.018;21.036;2023-03-17T15:17:56;8.50;;;6.30;;
35506;SDS011;36461;52.018;21.036;2023-03-17T15:20:25;11.30;;;6.70;;
35506;SDS011;36461;52.018;21.036;2023-03-17T15:22:59;12.40;;;7.60;;
35506;SDS011;36461;52.018;21.036;2023-03-17T15:28:13;11.30;;;6.60;;
35506;SDS011;36461;52.018;21.036;2023-03-17T15:30:44;11.40;;;7.40;;
35506;SDS011;36461;52.018;21.036;2023-03-17T15:35:49;12.60;;;6.60;;
35506;SDS011;36461;52.018;21.036;2023-03-17T15:38:17;11.50;;;6.80;;
35506;SDS011;36461;52.018;21.036;2023-03-17T15:40:46;10.60;;;6.60;;
35506;SDS011;36461;52.018;21.036;2023-03-17T15:43:14;15.80;;;7.10;;
35506;SDS011;36461;52.018;21.036;2023-03-17T15:45:43;10.90;;;6.40;;
35506;SDS011;36461;52.018;21.036;2023-03-17T15:48:19;11.00;;;6.80;;
35506;SDS011;36461;52.018;21.036;2023-03-17T15:50:52;12.30;;;6.10;;
35506;SDS011;36461;52.018;21.036;2023-03-17T15:53:23;11.20;;;6.00;;
35506;SDS011;36461;52.018;21.036;2023-03-17T15:55:51;12.10;;;6.00;;
35506;SDS011;36461;52.018;21.036;2023-03-17T15:58:19;13.00;;;6.30;;
35506;SDS011;36461;52.018;21.036;2023-03-17T16:00:55;15.00;;;6.70;;
35506;SDS011;36461;52.018;21.036;2023-03-17T16:03:29;12.30;;;6.60;;
35506;SDS011;36461;52.018;21.036;2023-03-17T16:06:00;11.80;;;6.30;;
35506;SDS011;36461;52.018;21.036;2023-03-17T16:08:30;13.30;;;6.00;;
35506;SDS011;36461;52.018;21.036;2023-03-17T16:10:58;12.10;;;6.50;;
35506;SDS011;36461;52.018;21.036;2023-03-17T16:13:26;12.30;;;5.90;;
35506;SDS011;36461;52.018;21.036;2023-03-17T16:15:55;10.30;;;6.50;;
35506;SDS011;36461;52.018;21.036;2023-03-17T16:18:30;11.50;;;5.30;;
35506;SDS011;36461;52.018;21.036;2023-03-17T16:21:00;11.60;;;6.60;;
35506;SDS011;36461;52.018;21.036;2023-03-17T16:23:31;12.50;;;7.10;;
35506;SDS011;36461;52.018;21.036;2023-03-17T16:26:04;11.90;;;6.50;;
35506;SDS011;36461;52.018;21.036;2023-03-17T16:28:44;13.90;;;6.70;;
35506;SDS011;36461;52.018;21.036;2023-03-17T16:31:18;11.20;;;6.50;;